Thousand Springs, Nevada
Current Conditions -  °F | °C
As of 1:35 AM on Friday 28 Nov 2014 (Local Time) from KENV Reporting Station
Clear Clear  
Wind Chill:   Ceiling: Unl
Heat Index:   Visibility: 10mi
Dew Point: -4°   Wind: 0mph
Humidity: 70%   Direction: NA
Pressure: 30.07"   Gusts: NA
Location:  41.0114°N, 114.57°W
Report Text: KENV 280935Z AUTO 00000KT 10SM CLR 01/M04 A3007 RMK AO1
Loading
Personal Weather Stations






























Interactive Weather Map New forecast layout! Learn more

10-Day Weather Forecast

Advertisements
Track Severe Weather on mobile